Time;durP1;ratioP1;P1;durP2;ratioP2;P2;SDS_P1;SDS_P2;PMS_P1;PMS_P2;Temp;Humidity;BMP_temperature;BMP_pressure;BME280_temperature;BME280_humidity;BME280_pressure;Samples;Min_cycle;Max_cycle;Signal;HPM_P1;HPM_P2
2021/05/29 00:01:31;;;;;;;31.35;17.13;;;12.60;76.60;;;;;;5055527;28;20041;-60
2021/05/29 00:03:59;;;;;;;28.75;17.02;;;12.50;76.60;;;;;;5048975;28;20041;-63
2021/05/29 00:06:27;;;;;;;32.97;17.92;;;12.60;76.40;;;;;;5049156;28;20056;-62
2021/05/29 00:08:55;;;;;;;30.70;17.40;;;12.60;76.60;;;;;;5049258;28;20064;-61
2021/05/29 00:11:23;;;;;;;35.45;19.45;;;12.60;76.60;;;;;;5049793;28;20049;-65
2021/05/29 00:13:51;;;;;;;40.05;20.48;;;12.60;76.70;;;;;;5049727;28;20485;-66
2021/05/29 00:16:19;;;;;;;35.20;19.88;;;12.50;76.90;;;;;;5031430;28;20056;-63
2021/05/29 00:18:47;;;;;;;37.88;19.77;;;12.50;77.00;;;;;;5049876;28;20068;-63
2021/05/29 00:21:15;;;;;;;46.70;21.75;;;12.50;77.00;;;;;;5049490;28;20057;-64
2021/05/29 00:23:44;;;;;;;39.78;22.38;;;12.50;77.10;;;;;;5049130;28;20065;-65
2021/05/29 00:26:11;;;;;;;40.45;21.15;;;12.40;77.20;;;;;;5047742;28;20053;-62
2021/05/29 00:28:39;;;;;;;36.72;19.10;;;12.40;77.30;;;;;;5048338;28;20057;-60
2021/05/29 00:31:07;;;;;;;42.67;20.02;;;12.30;77.60;;;;;;5049320;28;20049;-64
2021/05/29 00:33:35;;;;;;;31.73;19.02;;;12.40;77.80;;;;;;5031052;28;20052;-65
2021/05/29 00:36:03;;;;;;;45.47;21.48;;;12.30;77.90;;;;;;4998589;28;20060;-58
2021/05/29 00:38:31;;;;;;;35.30;20.33;;;12.30;77.80;;;;;;5049235;28;20056;-63
2021/05/29 00:40:59;;;;;;;33.50;19.00;;;12.30;77.90;;;;;;5048207;28;20053;-62
2021/05/29 00:43:27;;;;;;;33.13;17.63;;;12.30;78.00;;;;;;5047231;28;20049;-63
2021/05/29 00:45:55;;;;;;;34.65;19.75;;;12.30;78.00;;;;;;5066600;28;20060;-63
2021/05/29 00:48:23;;;;;;;31.02;17.90;;;12.20;78.00;;;;;;5067436;28;20413;-61
2021/05/29 00:50:58;;;;;;;36.28;18.23;;;12.20;78.10;;;;;;5066539;28;20071;-63
2021/05/29 00:53:28;;;;;;;32.33;17.92;;;12.20;78.40;;;;;;5049930;28;20048;-59
2021/05/29 00:55:57;;;;;;;33.20;16.80;;;12.20;78.50;;;;;;5069013;28;20060;-64
2021/05/29 00:58:26;;;;;;;32.63;17.73;;;12.20;78.60;;;;;;5051754;28;20059;-60
2021/05/29 01:00:54;;;;;;;28.10;15.40;;;12.10;78.60;;;;;;5060280;28;20057;-60
2021/05/29 01:03:23;;;;;;;25.77;14.57;;;12.10;78.50;;;;;;5048977;28;20049;-63
2021/05/29 01:05:51;;;;;;;27.00;14.02;;;12.10;78.50;;;;;;5050980;28;20063;-59
2021/05/29 01:08:22;;;;;;;25.92;14.45;;;12.00;78.60;;;;;;5028916;28;20394;-59
2021/05/29 01:10:50;;;;;;;27.35;13.75;;;12.00;78.50;;;;;;5029118;28;20057;-59
2021/05/29 01:13:22;;;;;;;26.63;15.00;;;12.00;78.60;;;;;;5028654;28;20060;-62
2021/05/29 01:15:50;;;;;;;22.42;12.85;;;12.00;78.50;;;;;;5011280;28;20707;-59
2021/05/29 01:18:18;;;;;;;23.38;13.18;;;12.00;78.50;;;;;;5028609;28;20053;-59
2021/05/29 01:20:47;;;;;;;20.48;12.93;;;12.00;78.60;;;;;;5011298;28;20061;-59
2021/05/29 01:23:15;;;;;;;24.48;12.48;;;11.90;78.70;;;;;;5028730;28;20060;-59
2021/05/29 01:25:46;;;;;;;23.73;11.95;;;12.00;78.70;;;;;;5028657;28;20049;-60
2021/05/29 01:28:21;;;;;;;19.05;12.20;;;11.90;78.70;;;;;;5028608;28;20489;-59
2021/05/29 01:30:58;;;;;;;20.85;12.70;;;11.90;78.70;;;;;;5019354;28;20068;-60
2021/05/29 01:33:30;;;;;;;22.90;12.88;;;11.90;78.60;;;;;;5048307;28;20056;-60
2021/05/29 01:36:05;;;;;;;21.02;12.43;;;11.80;78.60;;;;;;5048560;28;20405;-60
2021/05/29 01:38:34;;;;;;;19.38;11.65;;;11.80;78.80;;;;;;5052413;28;20412;-61
2021/05/29 01:41:08;;;;;;;24.98;12.52;;;11.80;78.80;;;;;;5050226;28;20059;-59
2021/05/29 01:43:41;;;;;;;26.75;12.98;;;11.80;78.90;;;;;;5067737;28;20083;-59
2021/05/29 01:46:10;;;;;;;21.35;12.85;;;11.80;78.90;;;;;;5069122;28;20060;-61
2021/05/29 01:48:42;;;;;;;24.48;12.82;;;11.80;79.10;;;;;;5036349;28;20052;-59
2021/05/29 01:51:11;;;;;;;22.92;13.73;;;11.80;79.00;;;;;;5050107;28;20057;-60
2021/05/29 01:53:39;;;;;;;27.10;15.52;;;11.80;79.10;;;;;;5049482;28;20092;-61
2021/05/29 01:56:08;;;;;;;25.00;13.70;;;11.80;79.10;;;;;;5049942;28;20052;-58
2021/05/29 01:58:37;;;;;;;27.10;14.13;;;11.80;79.40;;;;;;5050454;28;20089;-59
2021/05/29 02:01:06;;;;;;;22.85;14.35;;;11.80;79.70;;;;;;5043203;28;20056;-59
2021/05/29 02:03:36;;;;;;;32.80;18.20;;;11.80;79.80;;;;;;5070626;28;20055;-59
2021/05/29 02:06:04;;;;;;;37.10;18.20;;;11.80;80.00;;;;;;5052313;28;20060;-59
2021/05/29 02:08:32;;;;;;;40.13;19.65;;;11.80;80.00;;;;;;5069324;28;20052;-58
2021/05/29 02:11:01;;;;;;;32.00;16.67;;;11.80;80.10;;;;;;5052554;28;20535;-63
2021/05/29 02:13:37;;;;;;;43.30;21.77;;;11.70;80.10;;;;;;5068750;28;20059;-59
2021/05/29 02:16:10;;;;;;;54.40;23.45;;;11.80;80.20;;;;;;5068876;28;20048;-59
2021/05/29 02:18:40;;;;;;;32.45;17.17;;;11.70;80.20;;;;;;5068560;28;20381;-60
2021/05/29 02:21:15;;;;;;;34.53;17.83;;;11.70;80.20;;;;;;5052698;28;20420;-60
2021/05/29 02:23:48;;;;;;;28.30;16.00;;;11.70;80.30;;;;;;5070915;28;20055;-60
2021/05/29 02:26:18;;;;;;;61.08;25.08;;;11.80;80.30;;;;;;5052900;28;20056;-59
2021/05/29 02:28:49;;;;;;;43.40;22.10;;;11.70;80.20;;;;;;5070093;28;20080;-60
2021/05/29 02:31:18;;;;;;;30.05;15.30;;;11.70;80.20;;;;;;5070650;28;20405;-59
2021/05/29 02:33:47;;;;;;;23.45;14.02;;;11.70;80.30;;;;;;5070471;28;20418;-59
2021/05/29 02:36:15;;;;;;;27.92;16.90;;;11.80;80.30;;;;;;5070761;28;20056;-60
2021/05/29 02:38:43;;;;;;;44.40;23.77;;;11.70;80.40;;;;;;5070209;28;20060;-60
2021/05/29 02:41:12;;;;;;;27.23;15.38;;;11.70;80.30;;;;;;5069702;28;20052;-59
2021/05/29 02:43:41;;;;;;;44.17;20.92;;;11.70;80.30;;;;;;5070520;28;20447;-60
2021/05/29 02:46:10;;;;;;;26.77;17.17;;;11.70;80.40;;;;;;5052454;28;20044;-62
2021/05/29 02:48:38;;;;;;;40.05;20.15;;;11.70;80.70;;;;;;5070496;28;20045;-64
2021/05/29 02:51:06;;;;;;;31.15;17.80;;;11.60;80.60;;;;;;5052819;28;20064;-64
2021/05/29 02:53:34;;;;;;;28.27;16.75;;;11.70;80.80;;;;;;5070483;28;20064;-59
2021/05/29 02:56:02;;;;;;;27.13;17.85;;;11.60;81.20;;;;;;5052441;28;20052;-59
2021/05/29 02:58:30;;;;;;;25.45;17.75;;;11.60;81.30;;;;;;5070050;28;20053;-61
2021/05/29 03:00:57;;;;;;;29.75;18.63;;;11.60;81.70;;;;;;5070435;28;20048;-59
2021/05/29 03:03:25;;;;;;;34.05;20.58;;;11.60;81.60;;;;;;5070332;28;20052;-58
2021/05/29 03:05:53;;;;;;;26.95;19.25;;;11.60;82.00;;;;;;5059960;28;20049;-61
2021/05/29 03:08:22;;;;;;;31.83;22.48;;;11.60;82.30;;;;;;5048627;28;20059;-58
2021/05/29 03:10:51;;;;;;;46.58;27.67;;;11.50;82.40;;;;;;5052157;28;20052;-58
2021/05/29 03:13:19;;;;;;;29.40;21.60;;;11.50;82.20;;;;;;5052652;28;20044;-59
2021/05/29 03:15:48;;;;;;;37.70;22.15;;;11.50;82.40;;;;;;5070146;28;20056;-58
2021/05/29 03:18:16;;;;;;;34.05;23.10;;;11.50;82.50;;;;;;5069838;28;20420;-60
2021/05/29 03:20:44;;;;;;;34.90;23.98;;;11.50;82.70;;;;;;5070164;28;20485;-59
2021/05/29 03:23:12;;;;;;;43.80;27.67;;;11.50;82.90;;;;;;5052120;28;20051;-60
2021/05/29 03:25:40;;;;;;;33.47;24.27;;;11.50;82.70;;;;;;5070447;28;20822;-58
2021/05/29 03:28:08;;;;;;;36.80;23.83;;;11.50;82.70;;;;;;5069391;28;20053;-59
2021/05/29 03:30:37;;;;;;;58.15;34.60;;;11.50;83.00;;;;;;5063048;28;20090;-58
2021/05/29 03:33:05;;;;;;;79.03;40.92;;;11.60;82.80;;;;;;5049379;28;20045;-60
2021/05/29 03:35:33;;;;;;;36.05;25.42;;;11.50;82.80;;;;;;5031620;28;20049;-59
2021/05/29 03:38:00;;;;;;;42.25;28.42;;;11.60;82.80;;;;;;5049570;28;20068;-63
2021/05/29 03:40:28;;;;;;;58.28;33.60;;;11.60;82.80;;;;;;5052079;28;20061;-58
2021/05/29 03:42:56;;;;;;;45.13;28.27;;;11.60;82.80;;;;;;5030934;28;20580;-61
2021/05/29 03:45:25;;;;;;;43.67;27.00;;;11.60;82.80;;;;;;5053466;28;20700;-60
2021/05/29 03:47:52;;;;;;;35.75;25.30;;;11.60;82.80;;;;;;5059587;28;20052;-59
2021/05/29 03:50:26;;;;;;;36.33;24.70;;;11.60;82.80;;;;;;5072896;28;20059;-63
2021/05/29 03:52:53;;;;;;;38.50;25.90;;;11.60;82.90;;;;;;5067855;28;20083;-61
2021/05/29 03:55:22;;;;;;;40.55;28.27;;;11.60;83.00;;;;;;5035927;28;20060;-62
2021/05/29 03:57:51;;;;;;;36.20;26.77;;;11.60;83.00;;;;;;5053534;28;20056;-60
2021/05/29 04:00:21;;;;;;;35.90;25.90;;;11.70;82.90;;;;;;5039002;28;20059;-61
2021/05/29 04:02:50;;;;;;;38.28;24.80;;;11.60;82.80;;;;;;5055312;28;20442;-63
2021/05/29 04:05:19;;;;;;;37.63;23.63;;;11.70;82.80;;;;;;5073182;28;20416;-62
2021/05/29 04:07:47;;;;;;;41.97;26.17;;;11.80;82.80;;;;;;5073062;28;20044;-59
2021/05/29 04:10:21;;;;;;;38.30;25.15;;;11.70;82.80;;;;;;5072797;28;20060;-64
2021/05/29 04:12:49;;;;;;;40.65;25.08;;;11.80;82.70;;;;;;5071773;28;20052;-60
2021/05/29 04:15:18;;;;;;;35.95;24.52;;;11.80;82.70;;;;;;5072024;28;20053;-63
2021/05/29 04:17:47;;;;;;;37.70;24.92;;;11.80;82.70;;;;;;5071692;28;20106;-62
2021/05/29 04:20:18;;;;;;;37.65;24.95;;;11.80;82.70;;;;;;5072001;28;20057;-61
2021/05/29 04:22:46;;;;;;;36.90;24.42;;;11.80;82.60;;;;;;5054049;28;20061;-62
2021/05/29 04:25:17;;;;;;;42.78;27.13;;;11.80;82.70;;;;;;5070560;28;20056;-60
2021/05/29 04:27:46;;;;;;;49.25;28.38;;;11.80;82.60;;;;;;5053479;28;20049;-59
2021/05/29 04:30:17;;;;;;;41.97;28.52;;;11.80;82.50;;;;;;5071513;28;20067;-63
2021/05/29 04:32:46;;;;;;;34.47;23.40;;;11.90;82.40;;;;;;5054527;28;20056;-63
2021/05/29 04:35:16;;;;;;;31.08;21.45;;;11.90;82.30;;;;;;5072222;28;20067;-62
2021/05/29 04:37:45;;;;;;;32.35;21.83;;;12.00;82.20;;;;;;5072321;28;20037;-61
2021/05/29 04:40:15;;;;;;;27.63;19.40;;;12.00;82.00;;;;;;5031214;28;20053;-61
2021/05/29 04:42:43;;;;;;;30.83;20.90;;;12.10;81.80;;;;;;5030882;28;20049;-58
2021/05/29 04:45:13;;;;;;;30.65;20.73;;;12.20;81.60;;;;;;5030249;28;20057;-65
2021/05/29 04:47:41;;;;;;;31.20;20.08;;;12.20;81.30;;;;;;5030743;28;20068;-62
2021/05/29 04:50:11;;;;;;;29.58;19.80;;;12.30;81.10;;;;;;5027273;28;20072;-62
2021/05/29 04:52:39;;;;;;;25.10;18.15;;;12.30;80.80;;;;;;5027431;28;20077;-63
2021/05/29 04:55:09;;;;;;;27.48;17.77;;;12.30;80.70;;;;;;5011300;28;20068;-61
2021/05/29 04:57:37;;;;;;;25.55;17.90;;;12.40;80.50;;;;;;5028690;28;20049;-64
2021/05/29 05:00:11;;;;;;;31.30;20.90;;;12.40;80.30;;;;;;5032676;28;20057;-64
2021/05/29 05:02:39;;;;;;;25.85;17.52;;;12.50;80.20;;;;;;5053069;28;20061;-65
2021/05/29 05:05:09;;;;;;;26.70;18.13;;;12.50;80.00;;;;;;5011715;28;20490;-63
2021/05/29 05:07:37;;;;;;;27.42;18.13;;;12.60;79.80;;;;;;5028745;28;20060;-65
2021/05/29 05:10:06;;;;;;;29.75;19.02;;;12.70;79.70;;;;;;5028583;28;20591;-63
2021/05/29 05:12:34;;;;;;;30.00;18.00;;;12.70;79.40;;;;;;5010743;28;20053;-63
2021/05/29 05:15:14;;;;;;;35.22;23.80;;;12.80;79.20;;;;;;5061432;28;20458;-62
2021/05/29 05:17:42;;;;;;;43.70;24.63;;;12.80;78.90;;;;;;5083591;28;20056;-63
2021/05/29 05:20:10;;;;;;;38.70;23.88;;;12.90;78.70;;;;;;5065882;28;20049;-58
2021/05/29 05:22:38;;;;;;;30.92;20.55;;;13.00;78.60;;;;;;5059819;28;20052;-64
2021/05/29 05:25:07;;;;;;;28.10;19.40;;;13.00;78.20;;;;;;5063975;28;20056;-65
2021/05/29 05:27:35;;;;;;;25.48;20.33;;;13.20;78.00;;;;;;5064118;28;20416;-64
2021/05/29 05:30:08;;;;;;;29.08;20.55;;;13.30;77.70;;;;;;5065382;28;20048;-59
2021/05/29 05:32:41;;;;;;;31.23;21.60;;;13.30;77.30;;;;;;5084504;28;20059;-60
2021/05/29 05:35:13;;;;;;;33.05;22.55;;;13.50;77.00;;;;;;5084639;28;20884;-60
2021/05/29 05:37:42;;;;;;;34.90;23.30;;;13.60;76.70;;;;;;5084035;28;20060;-64
2021/05/29 05:40:11;;;;;;;38.08;25.77;;;13.70;76.40;;;;;;5083989;28;20463;-61
2021/05/29 05:42:39;;;;;;;44.53;25.27;;;13.80;76.10;;;;;;5083021;28;20056;-60
2021/05/29 05:45:08;;;;;;;40.40;24.85;;;14.00;75.80;;;;;;5070449;28;20051;-65
2021/05/29 05:47:35;;;;;;;42.70;25.48;;;14.20;75.40;;;;;;5057317;28;20060;-63
2021/05/29 05:50:05;;;;;;;36.15;24.67;;;14.40;74.90;;;;;;5062081;28;20049;-61
2021/05/29 05:52:33;;;;;;;30.30;21.75;;;14.80;74.10;;;;;;5059594;28;20049;-60
2021/05/29 05:55:01;;;;;;;48.25;32.00;;;15.20;72.90;;;;;;5063575;28;20072;-60
2021/05/29 05:57:28;;;;;;;31.88;22.42;;;15.60;72.00;;;;;;5079310;28;20071;-61
2021/05/29 05:59:56;;;;;;;34.13;22.23;;;15.90;70.40;;;;;;5042439;28;20078;-58
2021/05/29 06:02:24;;;;;;;33.55;22.40;;;16.30;69.20;;;;;;5083060;28;20051;-60
2021/05/29 06:04:53;;;;;;;34.97;21.73;;;16.50;68.30;;;;;;5064739;28;20048;-62
2021/05/29 06:07:21;;;;;;;32.97;21.10;;;16.60;67.60;;;;;;5061437;28;20057;-62
2021/05/29 06:09:48;;;;;;;31.30;21.15;;;16.80;67.30;;;;;;5061254;28;20044;-60
2021/05/29 06:12:17;;;;;;;30.67;20.20;;;17.00;66.00;;;;;;5039478;28;20532;-59
2021/05/29 06:20:18;;;;;;;28.88;19.63;;;17.80;63.00;;;;;;5057109;28;20068;-60
2021/05/29 06:22:45;;;;;;;27.40;18.38;;;18.00;62.40;;;;;;5060697;28;20052;-63
2021/05/29 06:25:15;;;;;;;25.13;17.35;;;18.00;61.20;;;;;;5055421;28;20076;-61
2021/05/29 06:27:43;;;;;;;21.55;15.38;;;18.00;60.70;;;;;;5045706;28;20148;-61
2021/05/29 06:30:12;;;;;;;22.60;17.05;;;18.00;59.90;;;;;;5047940;28;20509;-62
2021/05/29 06:32:40;;;;;;;22.15;15.95;;;18.00;59.60;;;;;;5049211;28;20139;-62
2021/05/29 06:35:09;;;;;;;22.08;15.52;;;17.90;59.80;;;;;;5045711;28;20056;-59
2021/05/29 06:37:37;;;;;;;24.83;16.00;;;17.80;59.80;;;;;;5047156;28;20040;-60
2021/05/29 06:40:07;;;;;;;20.77;15.05;;;17.70;60.00;;;;;;5047602;28;20052;-59
2021/05/29 06:42:35;;;;;;;21.27;16.08;;;17.50;60.20;;;;;;5043231;28;20056;-62
2021/05/29 06:45:04;;;;;;;25.67;15.02;;;17.30;60.30;;;;;;5047331;28;20064;-62
2021/05/29 06:47:33;;;;;;;21.17;14.50;;;17.20;60.40;;;;;;5047730;28;20053;-60
2021/05/29 06:50:01;;;;;;;20.67;15.35;;;16.90;60.40;;;;;;5048544;28;20519;-58
2021/05/29 06:52:31;;;;;;;18.55;13.82;;;16.80;60.90;;;;;;5046425;28;20645;-59
2021/05/29 07:00:15;;;;;;;20.52;14.60;;;16.90;61.40;;;;;;5052501;28;20057;-59
2021/05/29 07:02:43;;;;;;;20.38;13.70;;;17.00;60.90;;;;;;5069443;28;20060;-60
2021/05/29 07:05:13;;;;;;;22.40;13.70;;;17.00;60.60;;;;;;5067942;28;20488;-60
2021/05/29 07:07:43;;;;;;;18.63;14.05;;;17.10;60.40;;;;;;5069255;28;20059;-61
2021/05/29 07:10:11;;;;;;;20.95;13.88;;;17.10;60.60;;;;;;5069216;28;20067;-60
2021/05/29 07:12:39;;;;;;;18.75;13.98;;;17.10;60.50;;;;;;5051487;28;20047;-61
2021/05/29 07:15:08;;;;;;;18.88;13.88;;;17.10;60.60;;;;;;5069080;28;20060;-62
2021/05/29 07:17:40;;;;;;;19.10;13.45;;;17.20;60.60;;;;;;5069119;28;20061;-63
2021/05/29 07:20:10;;;;;;;21.75;14.23;;;17.20;60.70;;;;;;5064069;28;20045;-63
2021/05/29 07:22:38;;;;;;;20.10;13.35;;;17.30;60.50;;;;;;5067578;28;20060;-63
2021/05/29 07:25:08;;;;;;;24.67;12.55;;;17.30;60.30;;;;;;5068913;28;20440;-60
2021/05/29 07:27:35;;;;;;;14.68;10.43;;;17.30;60.40;;;;;;5051331;28;20420;-61
2021/05/29 07:30:07;;;;;;;15.30;10.25;;;17.30;59.70;;;;;;5059399;28;20058;-62
2021/05/29 07:32:35;;;;;;;16.42;11.73;;;17.40;59.70;;;;;;5039782;28;20068;-60
2021/05/29 07:35:04;;;;;;;20.40;12.23;;;17.60;59.50;;;;;;5029161;28;20057;-59
2021/05/29 07:37:32;;;;;;;17.58;12.35;;;17.60;59.40;;;;;;5027510;28;20054;-62
2021/05/29 07:40:01;;;;;;;15.23;11.77;;;17.70;59.30;;;;;;5028861;28;20068;-64
2021/05/29 07:42:31;;;;;;;18.23;11.95;;;17.60;59.30;;;;;;5027566;28;20057;-60
2021/05/29 07:44:59;;;;;;;19.67;11.65;;;17.70;59.30;;;;;;5028457;28;20053;-62
2021/05/29 07:47:28;;;;;;;16.48;11.57;;;17.80;59.30;;;;;;5043676;28;20044;-58
2021/05/29 07:49:55;;;;;;;21.65;13.25;;;17.70;59.50;;;;;;5046786;28;20056;-61
2021/05/29 07:52:23;;;;;;;23.23;12.18;;;17.80;59.40;;;;;;5045121;28;20067;-62
2021/05/29 07:54:51;;;;;;;23.67;13.10;;;17.90;59.30;;;;;;5030602;28;20053;-63
2021/05/29 07:57:19;;;;;;;15.80;11.55;;;17.90;59.20;;;;;;5051936;28;20049;-60
2021/05/29 07:59:47;;;;;;;18.80;11.93;;;17.90;59.20;;;;;;5043356;28;20041;-60
2021/05/29 08:02:15;;;;;;;20.35;13.13;;;18.00;59.10;;;;;;5049214;28;20061;-61
2021/05/29 08:04:42;;;;;;;20.50;12.88;;;18.10;59.00;;;;;;5048206;28;20437;-60
2021/05/29 08:07:10;;;;;;;20.23;13.52;;;18.30;58.80;;;;;;5048922;28;20123;-62
2021/05/29 08:09:38;;;;;;;20.52;13.45;;;18.30;58.60;;;;;;5045688;28;20068;-59
2021/05/29 08:12:06;;;;;;;19.50;14.00;;;18.30;58.50;;;;;;5047686;28;20056;-60
2021/05/29 08:14:35;;;;;;;20.48;13.50;;;18.50;58.20;;;;;;5047029;28;20037;-60
2021/05/29 08:17:06;;;;;;;18.63;13.38;;;18.60;58.10;;;;;;5047952;28;20196;-60
2021/05/29 08:19:34;;;;;;;21.92;13.07;;;18.60;58.20;;;;;;5040870;28;20048;-61
2021/05/29 08:22:02;;;;;;;17.92;11.38;;;18.70;58.20;;;;;;5047032;28;20053;-59
2021/05/29 08:24:30;;;;;;;15.57;11.30;;;18.80;57.90;;;;;;5047323;28;20405;-58
2021/05/29 08:27:00;;;;;;;16.67;11.45;;;19.00;57.60;;;;;;5044168;28;20056;-62
2021/05/29 08:29:27;;;;;;;18.25;10.57;;;19.10;57.10;;;;;;5046543;28;20052;-60
2021/05/29 08:31:55;;;;;;;13.25;9.93;;;19.10;57.10;;;;;;5045392;28;20048;-60
2021/05/29 08:34:23;;;;;;;15.50;9.88;;;19.00;57.10;;;;;;5046934;28;20045;-59
2021/05/29 08:36:51;;;;;;;16.30;9.57;;;19.00;57.00;;;;;;5046416;28;20052;-62
2021/05/29 08:39:19;;;;;;;15.15;9.45;;;19.00;57.00;;;;;;5044420;28;20063;-60
2021/05/29 08:41:47;;;;;;;15.20;9.55;;;19.00;57.10;;;;;;5046605;28;20059;-60
2021/05/29 08:44:16;;;;;;;12.00;9.48;;;19.10;56.70;;;;;;5044768;28;20067;-61
2021/05/29 08:46:43;;;;;;;16.75;9.60;;;19.10;57.10;;;;;;5047726;28;20044;-61
2021/05/29 08:49:11;;;;;;;16.17;8.98;;;19.00;57.10;;;;;;5047552;28;20063;-60
2021/05/29 08:51:39;;;;;;;15.00;10.02;;;19.10;57.30;;;;;;5046512;28;20067;-60
2021/05/29 08:54:07;;;;;;;12.80;9.18;;;19.00;57.00;;;;;;5046999;28;20061;-61
2021/05/29 08:56:35;;;;;;;15.13;9.95;;;19.00;57.30;;;;;;5046808;28;20060;-58
2021/05/29 08:59:03;;;;;;;18.40;10.35;;;19.20;57.20;;;;;;5047906;28;20044;-60
2021/05/29 09:01:30;;;;;;;12.80;9.45;;;19.20;57.10;;;;;;5042237;28;20401;-62
2021/05/29 09:04:03;;;;;;;12.77;8.82;;;19.30;56.60;;;;;;5026073;28;20084;-61
2021/05/29 09:06:30;;;;;;;12.43;9.30;;;19.30;56.70;;;;;;5027635;28;20159;-60
2021/05/29 09:09:01;;;;;;;13.50;9.32;;;19.30;55.70;;;;;;5026123;28;20135;-59
2021/05/29 09:11:49;;;;;;;13.43;9.98;;;19.20;56.40;;;;;;5027543;28;20058;-61
2021/05/29 09:14:27;;;;;;;16.45;10.10;;;19.20;56.80;;;;;;5009065;28;20061;-60
2021/05/29 09:17:06;;;;;;;16.20;9.57;;;19.30;56.90;;;;;;5028050;28;20064;-62
2021/05/29 09:20:02;;;;;;;18.23;10.52;;;19.30;56.70;;;;;;5026215;28;20371;-63
2021/05/29 09:22:56;;;;;;;15.68;10.45;;;19.20;56.70;;;;;;5025826;28;20057;-60
2021/05/29 09:25:25;;;;;;;;;;;19.20;57.30;;;;;;5028177;28;20057;-59
2021/05/29 09:28:03;;;;;;;19.98;9.50;;;19.50;57.20;;;;;;5049264;28;19920;-62
2021/05/29 09:30:34;;;;;;;13.05;9.35;;;19.80;56.10;;;;;;5051129;28;20056;-59
2021/05/29 09:33:34;;;;;;;17.30;9.65;;;19.90;55.80;;;;;;5067364;28;20430;-67
2021/05/29 09:36:06;;;;;;;14.93;9.52;;;19.90;54.80;;;;;;5066126;28;20056;-58
2021/05/29 09:38:39;;;;;;;15.00;9.55;;;19.90;54.80;;;;;;5064980;28;20480;-61
2021/05/29 09:41:22;;;;;;;13.93;9.73;;;19.90;54.80;;;;;;5065657;28;20397;-60
2021/05/29 09:43:56;;;;;;;18.02;8.77;;;19.80;54.50;;;;;;5065847;28;20072;-60
2021/05/29 09:46:26;;;;;;;17.38;9.57;;;19.80;54.60;;;;;;5066714;28;20048;-59
2021/05/29 09:49:02;;;;;;;15.68;9.25;;;19.70;54.70;;;;;;5066690;28;20049;-61
2021/05/29 09:51:33;;;;;;;13.75;8.68;;;19.60;54.60;;;;;;5064360;28;20063;-60
2021/05/29 09:54:09;;;;;;;13.38;8.52;;;19.60;54.90;;;;;;5045160;28;20056;-61
2021/05/29 09:56:44;;;;;;;12.13;8.02;;;19.80;54.50;;;;;;5054504;28;20414;-60
2021/05/29 09:59:12;;;;;;;12.55;7.53;;;20.00;54.60;;;;;;5044766;28;20045;-60
2021/05/29 10:01:43;;;;;;;13.82;7.35;;;20.20;54.40;;;;;;5048392;28;20053;-61
2021/05/29 10:04:14;;;;;;;15.18;7.32;;;20.50;54.20;;;;;;5049086;28;20057;-60
2021/05/29 10:06:59;;;;;;;12.40;7.13;;;20.80;53.40;;;;;;5048512;28;20044;-60
2021/05/29 10:09:27;;;;;;;11.35;7.10;;;20.90;51.70;;;;;;5046849;28;20493;-58
2021/05/29 10:11:57;;;;;;;10.25;6.70;;;20.90;51.00;;;;;;5048301;28;20128;-60
2021/05/29 10:14:27;;;;;;;14.13;6.82;;;20.80;51.40;;;;;;5047914;28;20060;-61
2021/05/29 10:16:55;;;;;;;15.27;7.18;;;20.90;51.20;;;;;;5048471;28;20091;-58
2021/05/29 10:19:25;;;;;;;14.48;7.22;;;20.90;51.00;;;;;;5012933;28;20060;-61
2021/05/29 10:21:54;;;;;;;11.70;6.45;;;20.80;50.80;;;;;;5041366;28;20053;-61
2021/05/29 10:24:24;;;;;;;8.50;6.03;;;20.90;51.20;;;;;;5049997;28;20056;-59
2021/05/29 10:26:54;;;;;;;10.13;6.53;;;20.90;51.00;;;;;;5046575;28;20049;-61
2021/05/29 10:29:26;;;;;;;14.65;7.25;;;20.90;49.90;;;;;;5049879;28;20065;-62
2021/05/29 10:32:18;;;;;;;9.70;5.90;;;21.00;50.10;;;;;;5044881;28;20454;-62
2021/05/29 10:35:08;;;;;;;9.38;6.40;;;21.00;50.60;;;;;;5029167;28;20062;-60
2021/05/29 10:37:37;;;;;;;10.48;6.55;;;21.00;50.20;;;;;;5038881;28;20493;-64
2021/05/29 10:40:21;;;;;;;8.52;6.18;;;21.20;50.20;;;;;;5049520;28;20049;-62
2021/05/29 10:43:35;;;;;;;13.98;6.05;;;21.40;49.00;;;;;;5048051;28;20080;-61
2021/05/29 10:46:07;;;;;;;12.10;6.97;;;21.40;49.00;;;;;;5030993;28;20075;-60
2021/05/29 10:48:49;;;;;;;12.43;6.95;;;21.50;48.40;;;;;;5049014;28;20068;-60
2021/05/29 10:51:18;;;;;;;13.65;6.75;;;21.60;48.50;;;;;;5047596;28;20053;-61
2021/05/29 10:53:57;;;;;;;12.80;6.80;;;21.70;48.80;;;;;;5061628;28;20056;-63
2021/05/29 10:56:29;;;;;;;10.23;7.03;;;21.80;48.40;;;;;;5069050;28;20068;-64
2021/05/29 10:59:18;;;;;;;14.70;7.30;;;21.90;47.60;;;;;;5060032;28;20063;-62
2021/05/29 11:01:48;;;;;;;9.32;6.53;;;21.80;47.10;;;;;;5028171;28;20053;-61
2021/05/29 11:04:17;;;;;;;12.30;7.22;;;21.80;47.90;;;;;;5031187;28;20052;-63
2021/05/29 11:06:54;;;;;;;9.65;6.43;;;22.00;47.60;;;;;;5031192;28;20053;-59
2021/05/29 11:09:24;;;;;;;10.90;6.00;;;22.10;46.20;;;;;;5049060;28;20049;-61
2021/05/29 11:11:54;;;;;;;11.75;6.35;;;22.10;46.30;;;;;;5047493;28;20056;-60
2021/05/29 11:14:30;;;;;;;13.68;6.63;;;22.00;45.80;;;;;;5048688;28;20049;-61
2021/05/29 11:16:58;;;;;;;15.23;6.75;;;21.90;46.30;;;;;;5048892;28;20052;-59
2021/05/29 11:19:36;;;;;;;11.15;6.55;;;21.90;46.70;;;;;;5049455;28;20061;-60
2021/05/29 11:22:06;;;;;;;9.80;6.35;;;22.00;47.10;;;;;;5048404;28;20468;-62
2021/05/29 11:24:47;;;;;;;12.45;6.70;;;22.30;46.40;;;;;;5048879;28;20067;-61
2021/05/29 11:27:16;;;;;;;11.18;6.80;;;22.30;44.90;;;;;;5049031;28;20060;-59
2021/05/29 11:29:57;;;;;;;13.85;7.28;;;22.20;45.50;;;;;;5049322;28;20072;-61
2021/05/29 11:35:31;;;;;;;11.27;8.10;;;22.30;45.10;;;;;;5065560;28;20557;-60
2021/05/29 11:38:20;;;;;;;15.18;7.68;;;22.30;44.70;;;;;;5068623;28;20052;-60
2021/05/29 11:40:57;;;;;;;16.08;8.70;;;22.20;44.60;;;;;;5068914;28;20378;-60
2021/05/29 11:43:50;;;;;;;15.68;9.25;;;22.10;45.00;;;;;;5068689;28;20052;-61
2021/05/29 11:46:21;;;;;;;10.02;7.68;;;22.20;44.60;;;;;;5068768;28;20079;-60
2021/05/29 11:49:06;;;;;;;15.05;8.38;;;22.00;45.20;;;;;;5064839;28;20055;-60
2021/05/29 11:51:39;;;;;;;11.88;8.32;;;22.00;45.50;;;;;;5067143;28;20041;-60
2021/05/29 11:54:20;;;;;;;13.65;9.70;;;21.90;45.90;;;;;;5067330;28;20211;-59
2021/05/29 11:56:51;;;;;;;12.80;8.70;;;21.80;46.10;;;;;;5068216;28;20508;-60
2021/05/29 11:59:20;;;;;;;12.77;9.68;;;21.90;46.30;;;;;;5064050;28;20055;-60
2021/05/29 12:01:54;;;;;;;12.07;8.98;;;22.10;46.00;;;;;;5062028;28;20049;-59
2021/05/29 12:04:27;;;;;;;11.00;8.65;;;22.10;46.00;;;;;;5067009;28;20060;-59
2021/05/29 12:06:57;;;;;;;12.00;8.80;;;22.00;46.40;;;;;;5066499;28;20216;-60
2021/05/29 12:09:30;;;;;;;13.52;9.02;;;22.00;46.50;;;;;;5066670;28;20067;-63
2021/05/29 12:12:04;;;;;;;13.45;9.85;;;22.00;45.40;;;;;;5047899;28;20061;-60
2021/05/29 12:14:52;;;;;;;15.50;9.60;;;21.90;44.90;;;;;;5029466;28;20417;-61
2021/05/29 12:17:20;;;;;;;16.10;10.20;;;21.90;45.20;;;;;;5026708;28;20064;-60
2021/05/29 12:19:51;;;;;;;15.65;10.55;;;22.00;44.80;;;;;;5027771;28;20056;-60
2021/05/29 12:22:24;;;;;;;14.00;10.20;;;21.90;44.80;;;;;;5027749;28;20406;-60
2021/05/29 12:25:05;;;;;;;12.68;10.48;;;21.80;44.90;;;;;;5026967;28;20056;-60
2021/05/29 12:27:41;;;;;;;16.40;10.65;;;21.80;44.90;;;;;;5027795;28;20386;-59
2021/05/29 12:30:13;;;;;;;13.18;10.27;;;21.80;44.70;;;;;;5032750;28;20391;-60
2021/05/29 12:32:44;;;;;;;17.15;10.43;;;21.80;45.20;;;;;;5065550;28;20067;-62
2021/05/29 12:35:32;;;;;;;13.43;10.18;;;21.90;45.30;;;;;;5067821;28;20053;-59
2021/05/29 12:38:10;;;;;;;13.40;10.02;;;21.80;45.30;;;;;;5037466;28;20057;-62
2021/05/29 12:40:52;;;;;;;14.35;9.43;;;21.80;45.30;;;;;;5047437;28;20044;-60
2021/05/29 12:43:20;;;;;;;15.00;11.25;;;22.00;45.10;;;;;;5046602;28;20057;-60
2021/05/29 12:45:47;;;;;;;15.48;10.07;;;22.20;44.20;;;;;;5045705;28;20060;-61
2021/05/29 12:48:15;;;;;;;11.15;9.18;;;22.20;43.10;;;;;;5049295;28;20063;-62
2021/05/29 12:50:59;;;;;;;14.27;10.38;;;21.90;43.30;;;;;;5046938;28;20057;-61
2021/05/29 12:53:29;;;;;;;16.40;10.55;;;21.80;44.00;;;;;;5047227;28;20060;-61
2021/05/29 12:56:15;;;;;;;17.60;10.15;;;21.60;44.90;;;;;;5047284;28;20485;-63
2021/05/29 12:59:07;;;;;;;14.27;9.30;;;21.70;45.30;;;;;;5046313;28;20405;-61
2021/05/29 13:07:40;;;;;;;11.70;8.07;;;21.60;44.40;;;;;;5067110;28;20052;-60
2021/05/29 13:12:57;;;;;;;16.50;8.63;;;21.10;43.90;;;;;;5047093;28;20052;-63